sensor_id;sensor_type;location;lat;lon;timestamp;temperature;humidity
72338;DHT22;60294;64.134;-21.862;2023-04-25T00:01:21;3.10;61.20
72338;DHT22;60294;64.134;-21.862;2023-04-25T00:03:49;3.10;61.90
72338;DHT22;60294;64.134;-21.862;2023-04-25T00:06:16;3.10;61.10
72338;DHT22;60294;64.134;-21.862;2023-04-25T00:08:43;3.00;60.80
72338;DHT22;60294;64.134;-21.862;2023-04-25T00:11:12;2.90;60.50
72338;DHT22;60294;64.134;-21.862;2023-04-25T00:13:38;2.90;60.40
72338;DHT22;60294;64.134;-21.862;2023-04-25T00:16:07;2.80;60.80
72338;DHT22;60294;64.134;-21.862;2023-04-25T00:18:33;2.80;61.00
72338;DHT22;60294;64.134;-21.862;2023-04-25T00:20:59;2.80;61.10
72338;DHT22;60294;64.134;-21.862;2023-04-25T00:23:25;2.70;61.10
72338;DHT22;60294;64.134;-21.862;2023-04-25T00:25:51;2.70;61.10
72338;DHT22;60294;64.134;-21.862;2023-04-25T00:28:17;2.70;61.20
72338;DHT22;60294;64.134;-21.862;2023-04-25T00:30:43;2.60;61.40
72338;DHT22;60294;64.134;-21.862;2023-04-25T00:33:09;2.60;61.40
72338;DHT22;60294;64.134;-21.862;2023-04-25T00:35:36;2.50;61.30
72338;DHT22;60294;64.134;-21.862;2023-04-25T00:38:02;2.50;61.00
72338;DHT22;60294;64.134;-21.862;2023-04-25T00:40:28;2.40;60.80
72338;DHT22;60294;64.134;-21.862;2023-04-25T00:42:54;2.40;60.80
72338;DHT22;60294;64.134;-21.862;2023-04-25T00:45:20;2.40;60.80
72338;DHT22;60294;64.134;-21.862;2023-04-25T00:47:46;2.40;60.90
72338;DHT22;60294;64.134;-21.862;2023-04-25T00:50:15;2.20;60.80
72338;DHT22;60294;64.134;-21.862;2023-04-25T00:52:43;2.30;60.70
72338;DHT22;60294;64.134;-21.862;2023-04-25T00:55:10;2.30;60.40
72338;DHT22;60294;64.134;-21.862;2023-04-25T00:57:37;2.30;60.40
72338;DHT22;60294;64.134;-21.862;2023-04-25T01:00:05;2.20;59.90
72338;DHT22;60294;64.134;-21.862;2023-04-25T01:02:33;2.30;60.10
72338;DHT22;60294;64.134;-21.862;2023-04-25T01:05:01;2.20;60.00
72338;DHT22;60294;64.134;-21.862;2023-04-25T01:07:27;2.20;60.40
72338;DHT22;60294;64.134;-21.862;2023-04-25T01:09:53;2.30;60.40
72338;DHT22;60294;64.134;-21.862;2023-04-25T01:12:19;2.10;60.10
72338;DHT22;60294;64.134;-21.862;2023-04-25T01:14:45;2.10;60.10
72338;DHT22;60294;64.134;-21.862;2023-04-25T01:17:12;2.10;59.80
72338;DHT22;60294;64.134;-21.862;2023-04-25T01:19:38;2.10;59.80
72338;DHT22;60294;64.134;-21.862;2023-04-25T01:22:04;2.10;60.20
72338;DHT22;60294;64.134;-21.862;2023-04-25T01:24:34;2.00;59.80
72338;DHT22;60294;64.134;-21.862;2023-04-25T01:27:01;2.10;59.70
72338;DHT22;60294;64.134;-21.862;2023-04-25T01:29:28;2.10;59.60
72338;DHT22;60294;64.134;-21.862;2023-04-25T01:31:54;2.10;59.60
72338;DHT22;60294;64.134;-21.862;2023-04-25T01:34:20;2.00;59.40
72338;DHT22;60294;64.134;-21.862;2023-04-25T01:36:50;2.00;59.00
72338;DHT22;60294;64.134;-21.862;2023-04-25T01:39:20;2.10;58.50
72338;DHT22;60294;64.134;-21.862;2023-04-25T01:41:46;2.10;58.70
72338;DHT22;60294;64.134;-21.862;2023-04-25T01:44:13;2.10;58.30
72338;DHT22;60294;64.134;-21.862;2023-04-25T01:46:39;2.10;58.50
72338;DHT22;60294;64.134;-21.862;2023-04-25T01:49:06;2.10;57.20
72338;DHT22;60294;64.134;-21.862;2023-04-25T01:51:32;2.10;56.70
72338;DHT22;60294;64.134;-21.862;2023-04-25T01:53:58;2.20;56.70
72338;DHT22;60294;64.134;-21.862;2023-04-25T01:56:24;2.20;56.10
72338;DHT22;60294;64.134;-21.862;2023-04-25T01:58:51;2.30;56.20
72338;DHT22;60294;64.134;-21.862;2023-04-25T02:01:17;2.30;55.90
72338;DHT22;60294;64.134;-21.862;2023-04-25T02:03:43;2.30;55.80
72338;DHT22;60294;64.134;-21.862;2023-04-25T02:06:09;2.30;55.50
72338;DHT22;60294;64.134;-21.862;2023-04-25T02:08:35;2.40;55.20
72338;DHT22;60294;64.134;-21.862;2023-04-25T02:11:02;2.40;55.20
72338;DHT22;60294;64.134;-21.862;2023-04-25T02:13:28;2.40;54.50
72338;DHT22;60294;64.134;-21.862;2023-04-25T02:15:54;2.40;55.00
72338;DHT22;60294;64.134;-21.862;2023-04-25T02:18:20;2.40;55.00
72338;DHT22;60294;64.134;-21.862;2023-04-25T02:20:46;2.40;54.70
72338;DHT22;60294;64.134;-21.862;2023-04-25T02:23:12;2.40;55.10
72338;DHT22;60294;64.134;-21.862;2023-04-25T02:25:39;2.40;55.60
72338;DHT22;60294;64.134;-21.862;2023-04-25T02:28:04;2.40;55.60
72338;DHT22;60294;64.134;-21.862;2023-04-25T02:30:30;2.40;56.10
72338;DHT22;60294;64.134;-21.862;2023-04-25T02:32:56;2.30;55.50
72338;DHT22;60294;64.134;-21.862;2023-04-25T02:35:22;2.30;55.60
72338;DHT22;60294;64.134;-21.862;2023-04-25T02:37:48;2.20;55.50
72338;DHT22;60294;64.134;-21.862;2023-04-25T02:40:15;2.20;54.90
72338;DHT22;60294;64.134;-21.862;2023-04-25T02:42:41;2.10;54.50
72338;DHT22;60294;64.134;-21.862;2023-04-25T02:45:07;2.20;55.20
72338;DHT22;60294;64.134;-21.862;2023-04-25T02:47:33;2.20;54.60
72338;DHT22;60294;64.134;-21.862;2023-04-25T02:49:59;2.20;54.80
72338;DHT22;60294;64.134;-21.862;2023-04-25T02:52:24;2.20;55.10
72338;DHT22;60294;64.134;-21.862;2023-04-25T02:54:50;2.20;55.20
72338;DHT22;60294;64.134;-21.862;2023-04-25T02:57:16;2.20;55.00
72338;DHT22;60294;64.134;-21.862;2023-04-25T02:59:42;2.20;55.40
72338;DHT22;60294;64.134;-21.862;2023-04-25T03:02:08;2.20;55.30
72338;DHT22;60294;64.134;-21.862;2023-04-25T03:04:34;2.10;55.20
72338;DHT22;60294;64.134;-21.862;2023-04-25T03:06:59;2.20;54.60
72338;DHT22;60294;64.134;-21.862;2023-04-25T03:09:26;2.10;54.50
72338;DHT22;60294;64.134;-21.862;2023-04-25T03:11:52;2.10;54.30
72338;DHT22;60294;64.134;-21.862;2023-04-25T03:14:18;2.10;54.60
72338;DHT22;60294;64.134;-21.862;2023-04-25T03:16:44;2.10;54.40
72338;DHT22;60294;64.134;-21.862;2023-04-25T03:19:10;2.10;54.60
72338;DHT22;60294;64.134;-21.862;2023-04-25T03:21:36;2.10;54.40
72338;DHT22;60294;64.134;-21.862;2023-04-25T03:24:03;2.10;54.50
72338;DHT22;60294;64.134;-21.862;2023-04-25T03:26:29;2.10;55.20
72338;DHT22;60294;64.134;-21.862;2023-04-25T03:28:56;2.10;54.80
72338;DHT22;60294;64.134;-21.862;2023-04-25T03:31:22;2.00;55.10
72338;DHT22;60294;64.134;-21.862;2023-04-25T03:33:48;2.00;55.40
72338;DHT22;60294;64.134;-21.862;2023-04-25T03:36:14;2.10;56.40
72338;DHT22;60294;64.134;-21.862;2023-04-25T03:38:40;2.00;55.60
72338;DHT22;60294;64.134;-21.862;2023-04-25T03:41:07;2.00;55.40
72338;DHT22;60294;64.134;-21.862;2023-04-25T03:43:33;2.00;55.30
72338;DHT22;60294;64.134;-21.862;2023-04-25T03:46:00;2.00;56.10
72338;DHT22;60294;64.134;-21.862;2023-04-25T03:48:26;2.10;55.90
72338;DHT22;60294;64.134;-21.862;2023-04-25T03:50:53;2.00;56.00
72338;DHT22;60294;64.134;-21.862;2023-04-25T03:53:19;2.00;56.00
72338;DHT22;60294;64.134;-21.862;2023-04-25T03:55:45;1.90;56.00
72338;DHT22;60294;64.134;-21.862;2023-04-25T03:58:11;1.90;56.00
72338;DHT22;60294;64.134;-21.862;2023-04-25T04:00:37;1.90;56.30
72338;DHT22;60294;64.134;-21.862;2023-04-25T04:03:02;1.90;56.30
72338;DHT22;60294;64.134;-21.862;2023-04-25T04:05:28;1.90;56.90
72338;DHT22;60294;64.134;-21.862;2023-04-25T04:07:54;1.90;56.70
72338;DHT22;60294;64.134;-21.862;2023-04-25T04:10:21;1.90;56.70
72338;DHT22;60294;64.134;-21.862;2023-04-25T04:12:47;1.80;56.60
72338;DHT22;60294;64.134;-21.862;2023-04-25T04:15:13;1.80;56.90
72338;DHT22;60294;64.134;-21.862;2023-04-25T04:17:39;1.80;57.00
72338;DHT22;60294;64.134;-21.862;2023-04-25T04:20:06;1.80;56.80
72338;DHT22;60294;64.134;-21.862;2023-04-25T04:22:33;1.80;56.20
72338;DHT22;60294;64.134;-21.862;2023-04-25T04:24:58;1.80;56.60
72338;DHT22;60294;64.134;-21.862;2023-04-25T04:27:24;1.80;56.80
72338;DHT22;60294;64.134;-21.862;2023-04-25T04:29:50;1.70;56.20
72338;DHT22;60294;64.134;-21.862;2023-04-25T04:32:17;1.80;56.20
72338;DHT22;60294;64.134;-21.862;2023-04-25T04:34:43;1.70;56.50
72338;DHT22;60294;64.134;-21.862;2023-04-25T04:37:10;1.80;56.10
72338;DHT22;60294;64.134;-21.862;2023-04-25T04:39:38;1.80;56.90
72338;DHT22;60294;64.134;-21.862;2023-04-25T04:42:04;1.70;56.80
72338;DHT22;60294;64.134;-21.862;2023-04-25T04:44:30;1.80;56.80
72338;DHT22;60294;64.134;-21.862;2023-04-25T04:47:00;1.70;57.10
72338;DHT22;60294;64.134;-21.862;2023-04-25T04:49:25;1.80;56.70
72338;DHT22;60294;64.134;-21.862;2023-04-25T04:51:52;1.80;56.80
72338;DHT22;60294;64.134;-21.862;2023-04-25T04:54:17;1.70;56.80
72338;DHT22;60294;64.134;-21.862;2023-04-25T04:56:43;1.70;56.90
72338;DHT22;60294;64.134;-21.862;2023-04-25T04:59:09;1.70;57.30
72338;DHT22;60294;64.134;-21.862;2023-04-25T05:01:36;1.70;57.50
72338;DHT22;60294;64.134;-21.862;2023-04-25T05:04:02;1.70;57.20
72338;DHT22;60294;64.134;-21.862;2023-04-25T05:06:29;1.70;57.40
72338;DHT22;60294;64.134;-21.862;2023-04-25T05:08:55;1.60;57.20
72338;DHT22;60294;64.134;-21.862;2023-04-25T05:11:23;1.60;57.10
72338;DHT22;60294;64.134;-21.862;2023-04-25T05:13:52;1.60;57.40
72338;DHT22;60294;64.134;-21.862;2023-04-25T05:16:19;1.60;57.30
72338;DHT22;60294;64.134;-21.862;2023-04-25T05:18:45;1.50;57.80
72338;DHT22;60294;64.134;-21.862;2023-04-25T05:21:11;1.50;58.30
72338;DHT22;60294;64.134;-21.862;2023-04-25T05:23:37;1.50;58.20
72338;DHT22;60294;64.134;-21.862;2023-04-25T05:26:03;1.40;58.60
72338;DHT22;60294;64.134;-21.862;2023-04-25T05:28:29;1.50;58.90
72338;DHT22;60294;64.134;-21.862;2023-04-25T05:30:55;1.40;58.80
72338;DHT22;60294;64.134;-21.862;2023-04-25T05:33:21;1.50;58.50
72338;DHT22;60294;64.134;-21.862;2023-04-25T05:35:47;1.50;58.70
72338;DHT22;60294;64.134;-21.862;2023-04-25T05:38:13;1.50;58.30
72338;DHT22;60294;64.134;-21.862;2023-04-25T05:40:40;1.60;58.30
72338;DHT22;60294;64.134;-21.862;2023-04-25T05:43:06;1.60;58.10
72338;DHT22;60294;64.134;-21.862;2023-04-25T05:45:32;1.60;58.30
72338;DHT22;60294;64.134;-21.862;2023-04-25T05:47:58;1.60;57.60
72338;DHT22;60294;64.134;-21.862;2023-04-25T05:50:24;1.50;57.50
72338;DHT22;60294;64.134;-21.862;2023-04-25T05:52:50;1.60;57.50
72338;DHT22;60294;64.134;-21.862;2023-04-25T05:55:16;1.60;57.90
72338;DHT22;60294;64.134;-21.862;2023-04-25T05:57:42;1.60;57.20
72338;DHT22;60294;64.134;-21.862;2023-04-25T06:00:13;1.70;57.20
72338;DHT22;60294;64.134;-21.862;2023-04-25T06:02:41;1.70;57.20
72338;DHT22;60294;64.134;-21.862;2023-04-25T06:05:08;1.70;57.00
72338;DHT22;60294;64.134;-21.862;2023-04-25T06:07:34;1.70;56.70
72338;DHT22;60294;64.134;-21.862;2023-04-25T06:10:00;1.70;56.90
72338;DHT22;60294;64.134;-21.862;2023-04-25T06:12:26;1.80;57.10
72338;DHT22;60294;64.134;-21.862;2023-04-25T06:14:52;1.90;56.70
72338;DHT22;60294;64.134;-21.862;2023-04-25T06:17:18;1.90;56.30
72338;DHT22;60294;64.134;-21.862;2023-04-25T06:19:43;1.90;56.20
72338;DHT22;60294;64.134;-21.862;2023-04-25T06:22:10;1.90;56.30
72338;DHT22;60294;64.134;-21.862;2023-04-25T06:24:36;1.90;56.40
72338;DHT22;60294;64.134;-21.862;2023-04-25T06:27:02;2.00;56.20
72338;DHT22;60294;64.134;-21.862;2023-04-25T06:29:28;1.90;55.60
72338;DHT22;60294;64.134;-21.862;2023-04-25T06:31:53;2.00;55.90
72338;DHT22;60294;64.134;-21.862;2023-04-25T06:34:19;2.10;56.00
72338;DHT22;60294;64.134;-21.862;2023-04-25T06:36:46;2.10;56.00
72338;DHT22;60294;64.134;-21.862;2023-04-25T06:39:11;2.10;56.10
72338;DHT22;60294;64.134;-21.862;2023-04-25T06:41:37;2.10;55.80
72338;DHT22;60294;64.134;-21.862;2023-04-25T06:44:03;2.10;55.60
72338;DHT22;60294;64.134;-21.862;2023-04-25T06:46:29;2.00;55.90
72338;DHT22;60294;64.134;-21.862;2023-04-25T06:48:55;2.10;55.90
72338;DHT22;60294;64.134;-21.862;2023-04-25T06:51:21;2.10;55.70
72338;DHT22;60294;64.134;-21.862;2023-04-25T06:53:47;2.10;55.60
72338;DHT22;60294;64.134;-21.862;2023-04-25T06:56:12;2.10;55.30
72338;DHT22;60294;64.134;-21.862;2023-04-25T06:58:38;2.10;55.30
72338;DHT22;60294;64.134;-21.862;2023-04-25T07:01:04;2.20;55.20
72338;DHT22;60294;64.134;-21.862;2023-04-25T07:03:30;2.20;54.80
72338;DHT22;60294;64.134;-21.862;2023-04-25T07:05:56;2.30;54.90
72338;DHT22;60294;64.134;-21.862;2023-04-25T07:08:22;2.40;54.90
72338;DHT22;60294;64.134;-21.862;2023-04-25T07:10:47;2.40;54.80
72338;DHT22;60294;64.134;-21.862;2023-04-25T07:13:13;2.40;54.40
72338;DHT22;60294;64.134;-21.862;2023-04-25T07:15:39;2.50;54.90
72338;DHT22;60294;64.134;-21.862;2023-04-25T07:18:05;2.50;54.80
72338;DHT22;60294;64.134;-21.862;2023-04-25T07:20:31;2.60;55.00
72338;DHT22;60294;64.134;-21.862;2023-04-25T07:22:58;2.60;55.00
72338;DHT22;60294;64.134;-21.862;2023-04-25T07:25:24;2.70;54.90
72338;DHT22;60294;64.134;-21.862;2023-04-25T07:27:50;2.70;54.40
72338;DHT22;60294;64.134;-21.862;2023-04-25T07:30:16;2.80;53.70
72338;DHT22;60294;64.134;-21.862;2023-04-25T07:32:41;2.90;53.50
72338;DHT22;60294;64.134;-21.862;2023-04-25T07:35:08;3.00;53.40
72338;DHT22;60294;64.134;-21.862;2023-04-25T07:37:35;3.10;53.10
72338;DHT22;60294;64.134;-21.862;2023-04-25T07:40:02;3.10;53.20
72338;DHT22;60294;64.134;-21.862;2023-04-25T07:42:29;3.10;53.40
72338;DHT22;60294;64.134;-21.862;2023-04-25T07:44:55;3.10;53.80
72338;DHT22;60294;64.134;-21.862;2023-04-25T07:47:21;3.20;53.70
72338;DHT22;60294;64.134;-21.862;2023-04-25T07:49:47;3.20;53.50
72338;DHT22;60294;64.134;-21.862;2023-04-25T07:52:13;3.20;53.40
72338;DHT22;60294;64.134;-21.862;2023-04-25T07:54:39;3.40;53.60
72338;DHT22;60294;64.134;-21.862;2023-04-25T07:57:05;3.40;53.20
72338;DHT22;60294;64.134;-21.862;2023-04-25T07:59:32;3.60;53.10
72338;DHT22;60294;64.134;-21.862;2023-04-25T08:01:58;3.50;52.10
72338;DHT22;60294;64.134;-21.862;2023-04-25T08:04:24;3.40;52.00
72338;DHT22;60294;64.134;-21.862;2023-04-25T08:06:51;3.60;52.10
72338;DHT22;60294;64.134;-21.862;2023-04-25T08:09:18;3.60;51.70
72338;DHT22;60294;64.134;-21.862;2023-04-25T08:11:43;3.70;51.70
72338;DHT22;60294;64.134;-21.862;2023-04-25T08:14:09;3.70;51.20
72338;DHT22;60294;64.134;-21.862;2023-04-25T08:16:35;3.70;51.10
72338;DHT22;60294;64.134;-21.862;2023-04-25T08:19:01;3.70;50.80
72338;DHT22;60294;64.134;-21.862;2023-04-25T08:21:27;3.70;50.90
72338;DHT22;60294;64.134;-21.862;2023-04-25T08:23:53;3.80;51.40
72338;DHT22;60294;64.134;-21.862;2023-04-25T08:26:18;3.80;51.00
72338;DHT22;60294;64.134;-21.862;2023-04-25T08:28:44;3.70;50.70
72338;DHT22;60294;64.134;-21.862;2023-04-25T08:31:11;3.80;51.20
72338;DHT22;60294;64.134;-21.862;2023-04-25T08:33:39;3.90;51.60
72338;DHT22;60294;64.134;-21.862;2023-04-25T08:36:06;3.90;51.30
72338;DHT22;60294;64.134;-21.862;2023-04-25T08:38:32;4.10;52.60
72338;DHT22;60294;64.134;-21.862;2023-04-25T08:40:59;4.30;54.30
72338;DHT22;60294;64.134;-21.862;2023-04-25T08:43:26;4.30;51.20
72338;DHT22;60294;64.134;-21.862;2023-04-25T08:45:55;4.20;50.80
72338;DHT22;60294;64.134;-21.862;2023-04-25T08:48:24;4.10;51.20
72338;DHT22;60294;64.134;-21.862;2023-04-25T08:50:53;4.00;51.10
72338;DHT22;60294;64.134;-21.862;2023-04-25T08:53:25;4.00;51.00
72338;DHT22;60294;64.134;-21.862;2023-04-25T08:55:53;4.10;51.10
72338;DHT22;60294;64.134;-21.862;2023-04-25T08:58:20;4.10;51.20
72338;DHT22;60294;64.134;-21.862;2023-04-25T09:00:48;4.00;50.40
72338;DHT22;60294;64.134;-21.862;2023-04-25T09:03:16;4.10;51.50
72338;DHT22;60294;64.134;-21.862;2023-04-25T09:05:42;4.10;50.90
72338;DHT22;60294;64.134;-21.862;2023-04-25T09:08:08;4.20;50.90
72338;DHT22;60294;64.134;-21.862;2023-04-25T09:10:34;4.20;51.00
72338;DHT22;60294;64.134;-21.862;2023-04-25T09:13:07;4.40;50.80
72338;DHT22;60294;64.134;-21.862;2023-04-25T09:15:53;4.40;50.50
72338;DHT22;60294;64.134;-21.862;2023-04-25T09:18:30;4.40;50.80
72338;DHT22;60294;64.134;-21.862;2023-04-25T09:21:04;4.30;50.60
72338;DHT22;60294;64.134;-21.862;2023-04-25T09:23:30;4.50;50.30
72338;DHT22;60294;64.134;-21.862;2023-04-25T09:26:03;4.50;49.90
72338;DHT22;60294;64.134;-21.862;2023-04-25T09:28:32;4.60;49.50
72338;DHT22;60294;64.134;-21.862;2023-04-25T09:30:58;4.60;48.70
72338;DHT22;60294;64.134;-21.862;2023-04-25T09:33:32;4.70;48.80
72338;DHT22;60294;64.134;-21.862;2023-04-25T09:36:09;4.80;48.90
72338;DHT22;60294;64.134;-21.862;2023-04-25T09:38:41;5.00;49.30
72338;DHT22;60294;64.134;-21.862;2023-04-25T09:41:08;5.10;47.70
72338;DHT22;60294;64.134;-21.862;2023-04-25T09:43:35;5.10;47.20
72338;DHT22;60294;64.134;-21.862;2023-04-25T09:46:01;5.10;47.10
72338;DHT22;60294;64.134;-21.862;2023-04-25T09:48:28;5.20;47.20
72338;DHT22;60294;64.134;-21.862;2023-04-25T09:51:09;5.30;47.20
72338;DHT22;60294;64.134;-21.862;2023-04-25T09:53:41;5.50;47.70
72338;DHT22;60294;64.134;-21.862;2023-04-25T09:56:09;5.50;47.10
72338;DHT22;60294;64.134;-21.862;2023-04-25T09:58:37;5.50;46.00
72338;DHT22;60294;64.134;-21.862;2023-04-25T10:01:05;5.60;46.40
72338;DHT22;60294;64.134;-21.862;2023-04-25T10:03:34;5.50;45.70
72338;DHT22;60294;64.134;-21.862;2023-04-25T10:06:01;5.60;45.90
72338;DHT22;60294;64.134;-21.862;2023-04-25T10:08:33;5.80;46.50
72338;DHT22;60294;64.134;-21.862;2023-04-25T10:11:07;5.90;45.80
72338;DHT22;60294;64.134;-21.862;2023-04-25T10:13:34;6.00;44.60
72338;DHT22;60294;64.134;-21.862;2023-04-25T10:16:02;5.90;43.90
72338;DHT22;60294;64.134;-21.862;2023-04-25T10:18:29;5.90;44.30
72338;DHT22;60294;64.134;-21.862;2023-04-25T10:20:57;6.10;44.20
72338;DHT22;60294;64.134;-21.862;2023-04-25T10:23:23;6.00;43.30
72338;DHT22;60294;64.134;-21.862;2023-04-25T10:25:53;5.80;43.20
72338;DHT22;60294;64.134;-21.862;2023-04-25T10:28:20;6.00;43.90
72338;DHT22;60294;64.134;-21.862;2023-04-25T10:31:07;6.10;43.30
72338;DHT22;60294;64.134;-21.862;2023-04-25T10:33:37;6.10;43.20
72338;DHT22;60294;64.134;-21.862;2023-04-25T10:38:37;6.20;43.40
72338;DHT22;60294;64.134;-21.862;2023-04-25T10:41:07;6.30;43.60
72338;DHT22;60294;64.134;-21.862;2023-04-25T10:46:00;6.30;42.50
72338;DHT22;60294;64.134;-21.862;2023-04-25T10:48:27;6.30;43.00
72338;DHT22;60294;64.134;-21.862;2023-04-25T10:51:22;6.40;43.40
72338;DHT22;60294;64.134;-21.862;2023-04-25T10:56:22;6.40;43.20
72338;DHT22;60294;64.134;-21.862;2023-04-25T10:58:49;6.40;43.00
72338;DHT22;60294;64.134;-21.862;2023-04-25T11:01:24;6.40;42.30
72338;DHT22;60294;64.134;-21.862;2023-04-25T11:03:57;6.40;42.90
72338;DHT22;60294;64.134;-21.862;2023-04-25T11:09:09;6.50;42.30
72338;DHT22;60294;64.134;-21.862;2023-04-25T11:11:37;6.70;42.80
72338;DHT22;60294;64.134;-21.862;2023-04-25T11:14:03;6.80;42.50
72338;DHT22;60294;64.134;-21.862;2023-04-25T11:16:29;6.80;41.90
72338;DHT22;60294;64.134;-21.862;2023-04-25T11:18:57;6.90;41.60
72338;DHT22;60294;64.134;-21.862;2023-04-25T11:21:24;6.80;41.00
72338;DHT22;60294;64.134;-21.862;2023-04-25T11:23:51;6.90;40.70
72338;DHT22;60294;64.134;-21.862;2023-04-25T11:26:19;7.00;41.60
72338;DHT22;60294;64.134;-21.862;2023-04-25T11:28:45;7.00;41.80
72338;DHT22;60294;64.134;-21.862;2023-04-25T11:31:12;7.10;42.10
72338;DHT22;60294;64.134;-21.862;2023-04-25T11:33:38;7.20;41.50
72338;DHT22;60294;64.134;-21.862;2023-04-25T11:36:06;7.10;40.40
72338;DHT22;60294;64.134;-21.862;2023-04-25T11:38:32;7.10;40.70
72338;DHT22;60294;64.134;-21.862;2023-04-25T11:40:58;7.10;40.80
72338;DHT22;60294;64.134;-21.862;2023-04-25T11:43:25;7.10;40.40
72338;DHT22;60294;64.134;-21.862;2023-04-25T11:45:51;7.10;41.70
72338;DHT22;60294;64.134;-21.862;2023-04-25T11:48:18;7.30;41.20
72338;DHT22;60294;64.134;-21.862;2023-04-25T11:50:45;7.20;41.00
72338;DHT22;60294;64.134;-21.862;2023-04-25T11:53:12;7.40;40.50
72338;DHT22;60294;64.134;-21.862;2023-04-25T11:55:37;7.50;41.40
72338;DHT22;60294;64.134;-21.862;2023-04-25T11:58:04;7.60;40.70
72338;DHT22;60294;64.134;-21.862;2023-04-25T12:00:30;7.60;40.30
72338;DHT22;60294;64.134;-21.862;2023-04-25T12:02:57;7.60;39.70
72338;DHT22;60294;64.134;-21.862;2023-04-25T12:05:26;7.60;39.60
72338;DHT22;60294;64.134;-21.862;2023-04-25T12:07:52;7.70;39.80
72338;DHT22;60294;64.134;-21.862;2023-04-25T12:10:18;7.80;39.30
72338;DHT22;60294;64.134;-21.862;2023-04-25T12:12:46;7.80;39.00
72338;DHT22;60294;64.134;-21.862;2023-04-25T12:15:17;8.10;38.30
72338;DHT22;60294;64.134;-21.862;2023-04-25T12:17:47;8.00;38.30
72338;DHT22;60294;64.134;-21.862;2023-04-25T12:20:15;8.20;37.70
72338;DHT22;60294;64.134;-21.862;2023-04-25T12:22:43;8.10;36.90
72338;DHT22;60294;64.134;-21.862;2023-04-25T12:25:36;8.20;36.40
72338;DHT22;60294;64.134;-21.862;2023-04-25T12:28:18;8.40;37.40
72338;DHT22;60294;64.134;-21.862;2023-04-25T12:33:23;8.60;37.50
72338;DHT22;60294;64.134;-21.862;2023-04-25T12:35:49;8.60;35.90
72338;DHT22;60294;64.134;-21.862;2023-04-25T12:38:29;8.70;36.20
72338;DHT22;60294;64.134;-21.862;2023-04-25T12:40:56;8.80;35.80
72338;DHT22;60294;64.134;-21.862;2023-04-25T12:43:22;8.90;36.40
72338;DHT22;60294;64.134;-21.862;2023-04-25T12:45:55;9.00;36.90
72338;DHT22;60294;64.134;-21.862;2023-04-25T12:48:21;9.10;35.80
72338;DHT22;60294;64.134;-21.862;2023-04-25T12:50:48;9.30;34.30
72338;DHT22;60294;64.134;-21.862;2023-04-25T12:53:22;9.40;35.10
72338;DHT22;60294;64.134;-21.862;2023-04-25T12:55:49;9.70;34.00
72338;DHT22;60294;64.134;-21.862;2023-04-25T12:58:16;9.70;34.70
72338;DHT22;60294;64.134;-21.862;2023-04-25T13:00:43;9.80;33.30
72338;DHT22;60294;64.134;-21.862;2023-04-25T13:03:09;9.60;32.70
72338;DHT22;60294;64.134;-21.862;2023-04-25T13:05:36;9.70;32.70
72338;DHT22;60294;64.134;-21.862;2023-04-25T13:08:02;9.80;33.00
72338;DHT22;60294;64.134;-21.862;2023-04-25T13:10:28;9.80;33.60
72338;DHT22;60294;64.134;-21.862;2023-04-25T13:12:54;10.10;32.40
72338;DHT22;60294;64.134;-21.862;2023-04-25T13:15:20;10.20;31.40
72338;DHT22;60294;64.134;-21.862;2023-04-25T13:17:45;10.40;31.30
72338;DHT22;60294;64.134;-21.862;2023-04-25T13:20:12;10.10;31.90
72338;DHT22;60294;64.134;-21.862;2023-04-25T13:22:39;9.90;32.20
72338;DHT22;60294;64.134;-21.862;2023-04-25T13:25:06;10.60;32.40
72338;DHT22;60294;64.134;-21.862;2023-04-25T13:27:33;10.90;31.10
72338;DHT22;60294;64.134;-21.862;2023-04-25T13:30:02;11.10;30.90
72338;DHT22;60294;64.134;-21.862;2023-04-25T13:32:36;11.20;29.40
72338;DHT22;60294;64.134;-21.862;2023-04-25T13:35:08;11.50;29.30
72338;DHT22;60294;64.134;-21.862;2023-04-25T13:37:34;12.10;28.40
72338;DHT22;60294;64.134;-21.862;2023-04-25T13:40:04;12.30;28.90
72338;DHT22;60294;64.134;-21.862;2023-04-25T13:42:31;12.40;26.70
72338;DHT22;60294;64.134;-21.862;2023-04-25T13:44:57;13.10;27.40
72338;DHT22;60294;64.134;-21.862;2023-04-25T13:47:23;13.80;26.00
72338;DHT22;60294;64.134;-21.862;2023-04-25T13:49:50;14.00;25.10
72338;DHT22;60294;64.134;-21.862;2023-04-25T13:52:16;14.00;25.50
72338;DHT22;60294;64.134;-21.862;2023-04-25T13:54:41;14.30;24.90
72338;DHT22;60294;64.134;-21.862;2023-04-25T13:57:07;14.80;24.00
72338;DHT22;60294;64.134;-21.862;2023-04-25T13:59:33;14.70;24.30
72338;DHT22;60294;64.134;-21.862;2023-04-25T14:01:59;15.30;23.80
72338;DHT22;60294;64.134;-21.862;2023-04-25T14:04:25;15.80;22.60
72338;DHT22;60294;64.134;-21.862;2023-04-25T14:06:51;16.20;22.60
72338;DHT22;60294;64.134;-21.862;2023-04-25T14:09:18;16.60;21.10
72338;DHT22;60294;64.134;-21.862;2023-04-25T14:11:46;16.60;21.90
72338;DHT22;60294;64.134;-21.862;2023-04-25T14:14:11;16.80;22.50
72338;DHT22;60294;64.134;-21.862;2023-04-25T14:16:38;16.40;21.60
72338;DHT22;60294;64.134;-21.862;2023-04-25T14:19:04;16.90;21.90
72338;DHT22;60294;64.134;-21.862;2023-04-25T14:21:30;17.60;21.60
72338;DHT22;60294;64.134;-21.862;2023-04-25T14:23:58;17.60;21.50
72338;DHT22;60294;64.134;-21.862;2023-04-25T14:26:23;17.60;20.10
72338;DHT22;60294;64.134;-21.862;2023-04-25T14:28:51;17.10;20.40
72338;DHT22;60294;64.134;-21.862;2023-04-25T14:31:17;16.10;21.20
72338;DHT22;60294;64.134;-21.862;2023-04-25T14:33:42;16.90;19.90
72338;DHT22;60294;64.134;-21.862;2023-04-25T14:43:28;18.70;19.20
72338;DHT22;60294;64.134;-21.862;2023-04-25T14:45:54;19.50;19.60
72338;DHT22;60294;64.134;-21.862;2023-04-25T14:48:20;19.70;19.00
72338;DHT22;60294;64.134;-21.862;2023-04-25T14:50:46;17.70;19.10
72338;DHT22;60294;64.134;-21.862;2023-04-25T14:53:12;18.80;19.80
72338;DHT22;60294;64.134;-21.862;2023-04-25T14:55:38;19.40;20.00
72338;DHT22;60294;64.134;-21.862;2023-04-25T14:58:04;18.50;20.60
72338;DHT22;60294;64.134;-21.862;2023-04-25T15:00:31;17.70;20.80
72338;DHT22;60294;64.134;-21.862;2023-04-25T15:02:57;17.10;21.30
72338;DHT22;60294;64.134;-21.862;2023-04-25T15:05:23;16.70;20.90
72338;DHT22;60294;64.134;-21.862;2023-04-25T15:07:49;15.30;22.80
72338;DHT22;60294;64.134;-21.862;2023-04-25T15:10:17;15.10;22.60
72338;DHT22;60294;64.134;-21.862;2023-04-25T15:12:43;14.40;23.50
72338;DHT22;60294;64.134;-21.862;2023-04-25T15:15:10;14.90;22.70
72338;DHT22;60294;64.134;-21.862;2023-04-25T15:17:43;16.50;22.30
72338;DHT22;60294;64.134;-21.862;2023-04-25T15:20:11;17.40;21.50
72338;DHT22;60294;64.134;-21.862;2023-04-25T15:22:40;17.90;20.90
72338;DHT22;60294;64.134;-21.862;2023-04-25T15:25:07;19.10;20.10
72338;DHT22;60294;64.134;-21.862;2023-04-25T15:27:37;19.80;19.50
72338;DHT22;60294;64.134;-21.862;2023-04-25T15:30:07;20.10;20.20
72338;DHT22;60294;64.134;-21.862;2023-04-25T15:32:33;20.50;19.20
72338;DHT22;60294;64.134;-21.862;2023-04-25T15:35:03;19.50;20.80